createdAt,value
2018-03-20T00:01:29.254Z,3.80
2018-03-20T00:03:56.881Z,3.92
2018-03-20T00:06:24.599Z,4.72
2018-03-20T00:08:52.166Z,3.78
2018-03-20T00:11:20.102Z,4.90
2018-03-20T00:13:47.780Z,4.65
2018-03-20T00:16:15.409Z,4.37
2018-03-20T00:18:43.049Z,3.30
2018-03-20T00:21:10.900Z,5.35
2018-03-20T00:23:38.753Z,4.30
2018-03-20T00:26:06.322Z,4.55
2018-03-20T00:28:34.113Z,5.60
2018-03-20T00:31:01.818Z,5.30
2018-03-20T00:33:29.379Z,4.40
2018-03-20T00:35:57.008Z,4.25
2018-03-20T00:38:24.940Z,4.43
2018-03-20T00:40:52.581Z,4.70
2018-03-20T00:43:20.271Z,4.80
2018-03-20T00:45:48.146Z,4.45
2018-03-20T00:48:15.724Z,4.10
2018-03-20T00:50:43.383Z,4.35
2018-03-20T00:53:11.011Z,5.43
2018-03-20T00:55:38.598Z,5.60
2018-03-20T00:58:06.213Z,4.82
2018-03-20T01:00:33.821Z,4.90
2018-03-20T01:03:01.485Z,4.07
2018-03-20T01:05:29.072Z,4.37
2018-03-20T01:07:56.640Z,4.60
2018-03-20T01:10:24.288Z,5.07
2018-03-20T01:12:51.901Z,4.68
2018-03-20T01:15:19.470Z,4.65
2018-03-20T01:17:47.131Z,6.22
2018-03-20T01:20:14.746Z,5.70
2018-03-20T01:22:42.330Z,5.68
2018-03-20T01:25:10.003Z,5.43
2018-03-20T01:27:37.646Z,5.43
2018-03-20T01:30:05.224Z,5.55
2018-03-20T01:32:32.943Z,5.57
2018-03-20T01:35:00.498Z,5.87
2018-03-20T01:37:28.077Z,5.93
2018-03-20T01:39:55.773Z,6.15
2018-03-20T01:42:23.346Z,6.30
2018-03-20T01:44:51.003Z,6.30
2018-03-20T01:47:18.645Z,5.97
2018-03-20T01:49:46.531Z,7.10
2018-03-20T01:52:14.507Z,5.85
2018-03-20T01:54:42.087Z,5.07
2018-03-20T01:57:09.755Z,5.43
2018-03-20T01:59:37.327Z,4.82
2018-03-20T02:02:05.900Z,6.20
2018-03-20T02:04:33.541Z,6.50
2018-03-20T02:07:01.127Z,5.35
2018-03-20T02:09:28.734Z,5.50
2018-03-20T02:11:56.408Z,5.78
2018-03-20T02:14:24.041Z,6.37
2018-03-20T02:16:51.728Z,6.07
2018-03-20T02:19:19.600Z,6.93
2018-03-20T02:21:47.196Z,5.80
2018-03-20T02:24:15.272Z,6.12
2018-03-20T02:26:42.835Z,6.72
2018-03-20T02:29:10.615Z,7.12
2018-03-20T02:31:38.380Z,6.57
2018-03-20T02:34:06.008Z,4.70
2018-03-20T02:36:33.851Z,5.65
2018-03-20T02:39:01.438Z,5.45
2018-03-20T02:41:29.085Z,5.37
2018-03-20T02:43:56.714Z,5.47
2018-03-20T02:46:24.293Z,4.20
2018-03-20T02:48:51.986Z,5.57
2018-03-20T02:51:19.896Z,3.85
2018-03-20T02:53:47.652Z,2.85
2018-03-20T02:56:15.340Z,3.45
2018-03-20T02:58:42.932Z,2.92
2018-03-20T03:01:10.891Z,4.87
2018-03-20T03:03:38.492Z,2.87
2018-03-20T03:06:06.169Z,3.17
2018-03-20T03:08:33.754Z,3.58
2018-03-20T03:11:01.484Z,3.03
2018-03-20T03:13:29.060Z,3.55
2018-03-20T03:15:56.714Z,3.67
2018-03-20T03:18:24.345Z,3.92
2018-03-20T03:20:52.244Z,3.72
2018-03-20T03:23:19.842Z,3.40
2018-03-20T03:25:47.603Z,2.78
2018-03-20T03:28:15.247Z,3.85
2018-03-20T03:30:42.936Z,3.10
2018-03-20T03:33:10.562Z,4.03
2018-03-20T03:35:38.157Z,4.22
2018-03-20T03:38:05.977Z,4.20
2018-03-20T03:40:33.595Z,3.28
2018-03-20T03:43:01.553Z,3.30
2018-03-20T03:45:29.114Z,4.35
2018-03-20T03:47:56.948Z,3.08
2018-03-20T03:50:24.512Z,3.65
2018-03-20T03:52:52.407Z,3.60
2018-03-20T03:55:20.109Z,4.25
2018-03-20T03:57:47.855Z,3.17
2018-03-20T04:00:15.490Z,3.20
2018-03-20T04:02:43.131Z,2.58
2018-03-20T04:05:10.886Z,5.03
2018-03-20T04:07:38.588Z,2.53
2018-03-20T04:10:06.377Z,2.85
2018-03-20T04:12:34.165Z,3.10
2018-03-20T04:15:01.798Z,3.37
2018-03-20T04:17:29.626Z,4.30
2018-03-20T04:19:57.484Z,3.15
2018-03-20T04:22:25.126Z,3.85
2018-03-20T04:24:52.930Z,3.22
2018-03-20T04:27:20.889Z,2.37
2018-03-20T04:29:48.564Z,3.28
2018-03-20T04:32:16.261Z,3.00
2018-03-20T04:34:43.863Z,3.67
2018-03-20T04:37:11.426Z,3.12
2018-03-20T04:39:39.014Z,3.03
2018-03-20T04:42:06.780Z,4.00
2018-03-20T04:44:34.382Z,4.50
2018-03-20T04:47:01.970Z,5.30
2018-03-20T04:49:29.870Z,4.93
2018-03-20T04:51:57.468Z,2.97
2018-03-20T04:54:25.122Z,4.95
2018-03-20T04:56:52.968Z,5.80
2018-03-20T04:59:20.577Z,6.20
2018-03-20T05:01:48.230Z,6.50
2018-03-20T05:04:16.208Z,7.25
2018-03-20T05:06:43.851Z,8.68
2018-03-20T05:09:11.469Z,6.80
2018-03-20T05:11:39.124Z,9.50
2018-03-20T05:14:06.677Z,8.88
2018-03-20T05:16:34.313Z,9.05
2018-03-20T05:19:07.763Z,9.45
2018-03-20T05:21:54.078Z,9.65
2018-03-20T05:24:21.694Z,8.18
2018-03-20T05:26:49.452Z,5.75
2018-03-20T05:29:17.374Z,6.35
2018-03-20T05:31:44.981Z,6.60
2018-03-20T05:34:12.629Z,5.78
2018-03-20T05:36:40.382Z,5.37
2018-03-20T05:39:07.973Z,2.92
2018-03-20T05:41:35.676Z,2.80
2018-03-20T05:44:03.304Z,4.43
2018-03-20T05:46:36.647Z,1.87
2018-03-20T05:52:13.751Z,2.15
2018-03-20T05:54:41.363Z,1.65
2018-03-20T05:57:09.034Z,1.52
2018-03-20T05:59:36.628Z,1.12
2018-03-20T06:02:04.225Z,1.37
2018-03-20T06:04:31.880Z,2.28
2018-03-20T06:06:59.517Z,1.60
2018-03-20T06:09:27.198Z,1.70
2018-03-20T06:11:54.908Z,1.58
2018-03-20T06:14:25.883Z,1.42
2018-03-20T06:16:53.993Z,1.90
2018-03-20T06:19:21.660Z,0.85
2018-03-20T06:21:49.288Z,1.67
2018-03-20T06:24:16.867Z,1.55
2018-03-20T06:26:44.545Z,1.33
2018-03-20T06:29:12.439Z,1.60
2018-03-20T06:31:40.797Z,1.40
2018-03-20T06:34:08.439Z,1.50
2018-03-20T06:36:36.068Z,1.27
2018-03-20T06:39:03.696Z,1.12
2018-03-20T06:41:31.356Z,1.48
2018-03-20T06:43:58.963Z,1.50
2018-03-20T06:46:26.808Z,0.90
2018-03-20T06:48:54.492Z,1.35
2018-03-20T06:51:22.140Z,1.60
2018-03-20T06:53:49.813Z,1.12
2018-03-20T06:56:17.600Z,1.20
2018-03-20T06:58:45.421Z,1.33
2018-03-20T07:01:13.082Z,1.00
2018-03-20T07:03:40.699Z,0.68
2018-03-20T07:06:08.348Z,1.55
2018-03-20T07:08:36.055Z,1.77
2018-03-20T07:11:03.717Z,2.10
2018-03-20T07:13:31.809Z,1.10
2018-03-20T07:15:59.815Z,1.87
2018-03-20T07:18:27.598Z,1.20
2018-03-20T07:20:55.614Z,1.02
2018-03-20T07:23:23.686Z,1.58
2018-03-20T07:25:51.419Z,1.77
2018-03-20T07:28:19.138Z,0.80
2018-03-20T07:30:46.851Z,1.73
2018-03-20T07:33:14.616Z,1.10
2018-03-20T07:35:42.285Z,1.10
2018-03-20T07:38:09.939Z,1.15
2018-03-20T07:40:37.517Z,1.00
2018-03-20T07:43:05.129Z,1.10
2018-03-20T07:45:32.760Z,1.27
2018-03-20T07:48:00.378Z,1.30
2018-03-20T07:50:28.015Z,1.15
2018-03-20T07:52:55.976Z,1.70
2018-03-20T07:55:23.539Z,1.33
2018-03-20T07:57:51.158Z,1.08
2018-03-20T08:00:18.804Z,0.90
2018-03-20T08:02:47.105Z,1.15
2018-03-20T08:05:14.756Z,2.37
2018-03-20T08:07:42.320Z,1.30
2018-03-20T08:10:10.112Z,1.00
2018-03-20T08:12:37.944Z,1.37
2018-03-20T08:15:05.574Z,1.20
2018-03-20T08:17:33.150Z,1.43
2018-03-20T08:20:00.715Z,1.27
2018-03-20T08:22:28.321Z,1.53
2018-03-20T08:24:55.962Z,2.37
2018-03-20T08:27:23.610Z,2.40
2018-03-20T08:29:51.255Z,1.57
2018-03-20T08:32:18.822Z,1.30
2018-03-20T08:34:46.384Z,0.77
2018-03-20T08:37:14.268Z,1.40
2018-03-20T08:39:42.059Z,1.70
2018-03-20T08:42:09.693Z,2.00
2018-03-20T08:44:37.330Z,1.40
2018-03-20T08:47:04.957Z,1.40
2018-03-20T08:49:32.565Z,1.30
2018-03-20T08:52:00.228Z,1.47
2018-03-20T08:54:28.910Z,1.20
2018-03-20T08:56:56.485Z,1.10
2018-03-20T08:59:24.053Z,1.50
2018-03-20T09:01:51.764Z,0.93
2018-03-20T09:04:19.471Z,1.33
2018-03-20T09:06:47.448Z,0.87
2018-03-20T09:09:15.168Z,0.90
2018-03-20T09:11:42.734Z,1.67
2018-03-20T09:14:10.557Z,1.13
2018-03-20T09:16:38.466Z,0.90
2018-03-20T09:19:06.164Z,1.30
2018-03-20T09:21:33.826Z,1.20
2018-03-20T09:24:01.426Z,0.90
2018-03-20T09:26:29.055Z,1.33
2018-03-20T09:28:57.537Z,1.27
2018-03-20T09:31:25.147Z,1.13
2018-03-20T09:33:53.071Z,1.23
2018-03-20T09:36:20.690Z,1.03
2018-03-20T09:38:48.333Z,1.43
2018-03-20T09:41:15.895Z,1.10
2018-03-20T09:43:43.573Z,1.20
2018-03-20T09:46:11.166Z,1.03
2018-03-20T09:48:38.878Z,0.80
2018-03-20T09:51:06.521Z,1.17
2018-03-20T09:53:34.170Z,1.00
2018-03-20T09:56:01.757Z,0.97
2018-03-20T09:58:29.414Z,0.70
2018-03-20T10:00:58.150Z,0.93
2018-03-20T10:03:25.770Z,0.73
2018-03-20T10:05:53.365Z,0.73
2018-03-20T10:08:20.984Z,1.47
2018-03-20T10:10:48.562Z,0.70
2018-03-20T10:13:16.419Z,0.80
2018-03-20T10:15:43.990Z,0.93
2018-03-20T10:18:11.573Z,0.60
2018-03-20T10:20:39.208Z,0.70
2018-03-20T10:23:06.793Z,0.50
2018-03-20T10:25:34.354Z,0.50
2018-03-20T10:28:02.354Z,0.70
2018-03-20T10:30:30.005Z,0.30
2018-03-20T10:32:57.588Z,0.50
2018-03-20T10:35:25.251Z,0.80
2018-03-20T10:37:52.916Z,1.00
2018-03-20T10:40:20.479Z,0.80
2018-03-20T10:42:48.211Z,0.60
2018-03-20T10:45:15.878Z,0.93
2018-03-20T10:47:43.530Z,0.53
2018-03-20T10:50:11.206Z,0.60
2018-03-20T10:52:38.806Z,0.93
2018-03-20T10:55:06.418Z,0.70
2018-03-20T10:57:34.055Z,0.67
2018-03-20T11:00:01.748Z,0.73
2018-03-20T11:02:32.130Z,0.90
2018-03-20T11:04:59.785Z,1.13
2018-03-20T11:07:27.634Z,0.60
2018-03-20T11:09:55.221Z,0.40
2018-03-20T11:12:22.818Z,0.60
2018-03-20T11:14:50.466Z,0.67
2018-03-20T11:17:18.235Z,0.60
2018-03-20T11:19:47.535Z,0.60
2018-03-20T11:22:15.151Z,0.90
2018-03-20T11:24:43.896Z,1.03
2018-03-20T11:27:11.487Z,1.00
2018-03-20T11:29:39.158Z,0.77
2018-03-20T11:32:06.826Z,0.60
2018-03-20T11:34:34.445Z,0.70
2018-03-20T11:37:02.086Z,0.77
2018-03-20T11:39:29.747Z,0.70
2018-03-20T11:41:57.409Z,0.70
2018-03-20T11:44:24.975Z,0.80
2018-03-20T11:46:52.585Z,0.40
2018-03-20T11:49:20.157Z,0.80
2018-03-20T11:51:47.756Z,0.70
2018-03-20T11:54:15.401Z,0.80
2018-03-20T11:56:43.315Z,0.70
2018-03-20T11:59:10.892Z,1.27
2018-03-20T12:01:38.779Z,1.37
2018-03-20T12:04:06.484Z,0.67
2018-03-20T12:06:34.046Z,0.60
2018-03-20T12:12:07.607Z,1.37
2018-03-20T12:14:35.312Z,0.93
2018-03-20T12:17:02.925Z,0.93
2018-03-20T12:19:30.527Z,0.60
2018-03-20T12:21:58.146Z,0.83
2018-03-20T12:24:25.761Z,0.70
2018-03-20T12:26:53.409Z,0.57
2018-03-20T12:29:21.044Z,0.63
2018-03-20T12:31:48.629Z,0.80
2018-03-20T12:34:16.253Z,0.33
2018-03-20T12:36:43.971Z,0.67
2018-03-20T12:39:11.745Z,0.60
2018-03-20T12:41:39.309Z,0.63
2018-03-20T12:44:06.915Z,1.50
2018-03-20T12:46:34.521Z,0.50
2018-03-20T12:49:02.390Z,0.50
2018-03-20T12:51:30.184Z,0.70
2018-03-20T12:53:57.787Z,0.77
2018-03-20T12:56:25.442Z,0.50
2018-03-20T12:58:53.263Z,0.93
2018-03-20T13:01:22.399Z,0.60
2018-03-20T13:03:50.023Z,0.70
2018-03-20T13:06:17.687Z,0.50
2018-03-20T13:08:45.307Z,0.50
2018-03-20T13:11:13.341Z,0.70
2018-03-20T13:13:40.940Z,0.70
2018-03-20T13:16:08.585Z,0.80
2018-03-20T13:18:36.535Z,0.70
2018-03-20T13:21:04.096Z,0.43
2018-03-20T13:23:31.688Z,0.40
2018-03-20T13:25:59.412Z,1.10
2018-03-20T13:28:26.990Z,1.13
2018-03-20T13:30:54.566Z,0.50
2018-03-20T13:33:22.205Z,0.50
2018-03-20T13:35:49.786Z,0.60
2018-03-20T13:38:18.016Z,0.43
2018-03-20T13:40:45.911Z,0.83
2018-03-20T13:43:13.524Z,0.90
2018-03-20T13:45:41.445Z,0.93
2018-03-20T13:48:09.011Z,0.60
2018-03-20T13:50:36.655Z,0.70
2018-03-20T13:53:04.225Z,0.53
2018-03-20T13:55:31.876Z,0.80
2018-03-20T13:57:59.489Z,0.73
2018-03-20T14:00:27.398Z,0.60
2018-03-20T14:02:55.011Z,0.60
2018-03-20T14:05:22.845Z,0.50
2018-03-20T14:07:50.460Z,0.90
2018-03-20T14:10:18.092Z,0.53
2018-03-20T14:12:45.680Z,0.40
2018-03-20T14:15:13.677Z,0.70
2018-03-20T14:17:41.310Z,0.50
2018-03-20T14:20:08.985Z,0.60
2018-03-20T14:22:36.827Z,0.60
2018-03-20T14:25:04.496Z,0.50
2018-03-20T14:27:32.099Z,0.50
2018-03-20T14:29:59.996Z,0.60
2018-03-20T14:32:27.623Z,0.67
2018-03-20T14:34:55.200Z,0.80
2018-03-20T14:37:22.805Z,0.60
2018-03-20T14:39:50.623Z,0.97
2018-03-20T14:42:18.256Z,0.87
2018-03-20T14:44:45.873Z,0.60
2018-03-20T14:47:13.502Z,0.77
2018-03-20T14:49:41.114Z,1.00
2018-03-20T14:52:08.716Z,0.80
2018-03-20T14:54:36.342Z,0.63
2018-03-20T14:57:03.943Z,0.60
2018-03-20T14:59:31.574Z,0.93
2018-03-20T15:01:59.227Z,0.57
2018-03-20T15:04:26.880Z,0.90
2018-03-20T15:06:54.507Z,0.63
2018-03-20T15:09:22.153Z,0.90
2018-03-20T15:11:50.125Z,0.93
2018-03-20T15:14:17.694Z,0.70
2018-03-20T15:16:45.342Z,0.53
2018-03-20T15:19:13.413Z,0.80
2018-03-20T15:21:41.159Z,0.50
2018-03-20T15:24:08.787Z,0.70
2018-03-20T15:26:37.115Z,0.50
2018-03-20T15:29:04.791Z,0.50
2018-03-20T15:31:32.383Z,0.70
2018-03-20T15:34:00.528Z,1.03
2018-03-20T15:36:28.260Z,0.90
2018-03-20T15:38:55.838Z,0.80
2018-03-20T15:41:23.418Z,1.30
2018-03-20T15:43:51.111Z,0.80
2018-03-20T15:46:18.691Z,1.10
2018-03-20T15:48:46.303Z,1.00
2018-03-20T15:51:13.892Z,1.17
2018-03-20T15:53:41.523Z,0.93
2018-03-20T15:56:09.161Z,0.70
2018-03-20T15:58:36.730Z,0.70
2018-03-20T16:01:04.302Z,0.50
2018-03-20T16:03:31.986Z,0.70
2018-03-20T16:05:59.583Z,1.10
2018-03-20T16:08:27.369Z,0.90
2018-03-20T16:10:54.989Z,0.70
2018-03-20T16:13:22.621Z,0.80
2018-03-20T16:15:50.211Z,1.00
2018-03-20T16:18:17.785Z,0.80
2018-03-20T16:20:45.433Z,0.60
2018-03-20T16:23:13.112Z,0.70
2018-03-20T16:25:40.718Z,0.63
2018-03-20T16:28:08.397Z,0.50
2018-03-20T16:30:35.979Z,0.83
2018-03-20T16:33:03.637Z,0.50
2018-03-20T16:35:31.233Z,0.60
2018-03-20T16:37:58.790Z,1.67
2018-03-20T16:40:26.381Z,0.67
2018-03-20T16:42:54.121Z,0.70
2018-03-20T16:45:21.692Z,1.20
2018-03-20T16:47:49.352Z,1.10
2018-03-20T16:50:17.006Z,0.70
2018-03-20T16:52:44.641Z,0.50
2018-03-20T16:55:12.250Z,0.80
2018-03-20T16:57:39.842Z,0.77
2018-03-20T17:00:07.415Z,0.80
2018-03-20T17:02:35.120Z,0.97
2018-03-20T17:05:02.672Z,0.53
2018-03-20T17:07:30.327Z,0.90
2018-03-20T17:09:57.884Z,1.53
2018-03-20T17:12:25.540Z,0.57
2018-03-20T17:14:53.146Z,0.50
2018-03-20T17:17:21.307Z,0.70
2018-03-20T17:19:48.936Z,0.60
2018-03-20T17:22:16.708Z,0.90
2018-03-20T17:24:44.556Z,0.90
2018-03-20T17:27:12.223Z,0.90
2018-03-20T17:29:39.905Z,1.00
2018-03-20T17:32:07.507Z,1.70
2018-03-20T17:34:35.075Z,1.00
2018-03-20T17:37:02.718Z,1.00
2018-03-20T17:39:30.392Z,1.50
2018-03-20T17:41:57.945Z,1.13
2018-03-20T17:44:25.534Z,1.27
2018-03-20T17:46:53.460Z,1.33
2018-03-20T17:49:21.075Z,2.67
2018-03-20T17:51:48.660Z,2.70
2018-03-20T17:54:16.238Z,1.40
2018-03-20T17:56:43.911Z,1.77
2018-03-20T17:59:11.484Z,1.23
2018-03-20T18:01:39.151Z,1.40
2018-03-20T18:04:06.803Z,1.63
2018-03-20T18:06:34.707Z,1.67
2018-03-20T18:09:02.441Z,1.73
2018-03-20T18:11:30.079Z,1.50
2018-03-20T18:13:57.702Z,1.30
2018-03-20T18:16:25.294Z,1.47
2018-03-20T18:18:52.927Z,1.00
2018-03-20T18:21:20.564Z,1.60
2018-03-20T18:23:48.131Z,1.20
2018-03-20T18:26:15.733Z,1.20
2018-03-20T18:28:43.352Z,1.13
2018-03-20T18:31:11.043Z,2.23
2018-03-20T18:33:38.612Z,1.10
2018-03-20T18:36:06.499Z,1.60
2018-03-20T18:38:34.147Z,1.00
2018-03-20T18:41:01.717Z,1.27
2018-03-20T18:43:29.592Z,1.37
2018-03-20T18:45:57.229Z,1.00
2018-03-20T18:48:24.876Z,1.77
2018-03-20T18:50:52.482Z,2.20
2018-03-20T18:53:20.070Z,1.57
2018-03-20T18:55:47.707Z,2.67
2018-03-20T18:58:15.341Z,1.73
2018-03-20T19:00:43.234Z,1.70
2018-03-20T19:03:11.106Z,1.30
2018-03-20T19:05:38.800Z,2.30
2018-03-20T19:08:06.599Z,3.00
2018-03-20T19:10:34.178Z,2.00
2018-03-20T19:13:01.821Z,1.80
2018-03-20T19:15:29.710Z,2.77
2018-03-20T19:17:57.266Z,2.30
2018-03-20T19:20:24.997Z,2.70
2018-03-20T19:22:52.743Z,3.77
2018-03-20T19:25:20.322Z,3.00
2018-03-20T19:27:47.936Z,1.80
2018-03-20T19:30:15.572Z,1.70
2018-03-20T19:32:43.142Z,1.87
2018-03-20T19:35:10.754Z,2.63
2018-03-20T19:37:38.400Z,2.37
2018-03-20T19:40:05.975Z,1.67
2018-03-20T19:42:33.623Z,2.50
2018-03-20T19:45:01.206Z,2.67
2018-03-20T19:47:28.770Z,2.17
2018-03-20T19:49:56.786Z,1.60
2018-03-20T19:52:24.374Z,1.77
2018-03-20T19:54:51.939Z,2.20
2018-03-20T19:57:19.562Z,2.45
2018-03-20T19:59:47.157Z,1.93
2018-03-20T20:02:14.754Z,2.80
2018-03-20T20:04:42.351Z,2.90
2018-03-20T20:07:10.006Z,2.03
2018-03-20T20:09:37.644Z,2.50
2018-03-20T20:12:05.199Z,2.20
2018-03-20T20:14:32.903Z,1.60
2018-03-20T20:17:00.501Z,1.98
2018-03-20T20:19:28.331Z,2.20
2018-03-20T20:21:55.989Z,1.60
2018-03-20T20:24:23.580Z,2.40
2018-03-20T20:26:51.149Z,2.10
2018-03-20T20:29:18.804Z,1.90
2018-03-20T20:31:46.493Z,1.50
2018-03-20T20:34:14.393Z,1.87
2018-03-20T20:36:42.006Z,2.28
2018-03-20T20:39:09.665Z,3.65
2018-03-20T20:41:37.633Z,3.85
2018-03-20T20:44:05.204Z,3.10
2018-03-20T20:46:32.907Z,2.35
2018-03-20T20:49:00.568Z,1.60
2018-03-20T20:51:28.225Z,2.50
2018-03-20T20:53:55.796Z,2.05
2018-03-20T20:56:23.413Z,1.55
2018-03-20T20:58:51.081Z,2.12
2018-03-20T21:01:18.669Z,2.80
2018-03-20T21:03:46.832Z,2.00
2018-03-20T21:06:14.509Z,1.95
2018-03-20T21:08:42.090Z,1.45
2018-03-20T21:11:09.742Z,1.80
2018-03-20T21:13:37.327Z,1.95
2018-03-20T21:16:04.944Z,1.73
2018-03-20T21:18:32.537Z,1.58
2018-03-20T21:21:00.121Z,2.00
2018-03-20T21:23:27.992Z,1.87
2018-03-20T21:25:55.654Z,2.00
2018-03-20T21:28:23.248Z,3.00
2018-03-20T21:30:50.897Z,3.60
2018-03-20T21:33:18.554Z,3.05
2018-03-20T21:35:46.110Z,3.25
2018-03-20T21:38:18.650Z,2.70
2018-03-20T21:40:46.244Z,2.95
2018-03-20T21:43:13.905Z,2.42
2018-03-20T21:45:41.493Z,3.40
2018-03-20T21:48:09.327Z,2.12
2018-03-20T21:50:36.928Z,2.28
2018-03-20T21:53:04.781Z,2.20
2018-03-20T21:55:32.436Z,2.92
2018-03-20T21:58:00.980Z,3.42
2018-03-20T22:00:28.567Z,3.00
2018-03-20T22:02:56.256Z,2.65
2018-03-20T22:05:23.930Z,3.20
2018-03-20T22:07:51.623Z,3.22
2018-03-20T22:10:19.223Z,2.65
2018-03-20T22:12:46.995Z,2.87
2018-03-20T22:15:14.577Z,3.05
2018-03-20T22:17:42.220Z,3.37
2018-03-20T22:20:09.907Z,2.65
2018-03-20T22:22:37.565Z,1.92
2018-03-20T22:25:05.161Z,3.45
2018-03-20T22:27:32.780Z,4.50
2018-03-20T22:30:00.371Z,3.20
2018-03-20T22:32:28.020Z,2.83
2018-03-20T22:34:55.692Z,3.05
2018-03-20T22:37:23.355Z,3.30
2018-03-20T22:39:51.042Z,2.60
2018-03-20T22:42:18.779Z,2.17
2018-03-20T22:44:46.338Z,2.90
2018-03-20T22:47:13.945Z,2.80
2018-03-20T22:49:41.673Z,3.12
2018-03-20T22:52:09.375Z,2.97
2018-03-20T22:54:36.944Z,2.25
2018-03-20T22:57:04.566Z,2.10
2018-03-20T22:59:32.391Z,1.80
2018-03-20T23:02:00.015Z,2.55
2018-03-20T23:04:27.611Z,2.53
2018-03-20T23:06:56.229Z,3.00
2018-03-20T23:09:23.810Z,2.35
2018-03-20T23:11:51.400Z,1.90
2018-03-20T23:14:19.718Z,2.60
2018-03-20T23:16:47.369Z,2.42
2018-03-20T23:19:15.041Z,2.58
2018-03-20T23:21:42.676Z,2.10
2018-03-20T23:24:10.490Z,2.37
2018-03-20T23:26:38.081Z,2.40
2018-03-20T23:29:05.641Z,2.25
2018-03-20T23:31:33.228Z,2.37
2018-03-20T23:34:00.838Z,2.17
2018-03-20T23:36:28.524Z,2.67
2018-03-20T23:38:56.158Z,3.00
2018-03-20T23:41:23.831Z,2.45
2018-03-20T23:43:51.457Z,3.47
2018-03-20T23:46:19.037Z,3.75
2018-03-20T23:48:46.614Z,2.22
2018-03-20T23:51:14.240Z,2.28
2018-03-20T23:53:41.825Z,2.92
2018-03-20T23:56:09.402Z,3.28
2018-03-20T23:58:37.138Z,3.35
